sensor_id;sensor_type;location;lat;lon;timestamp;pressure;altitude;pressure_sealevel;temperature;humidity
59289;BME280;45056;47.602;9.886;2023-05-25T00:00:43;93055.97;;;10.24;68.59
59289;BME280;45056;47.602;9.886;2023-05-25T00:03:11;93052.28;;;10.18;69.15
59289;BME280;45056;47.602;9.886;2023-05-25T00:05:40;93050.00;;;10.17;69.27
59289;BME280;45056;47.602;9.886;2023-05-25T00:08:08;93057.84;;;10.15;69.14
59289;BME280;45056;47.602;9.886;2023-05-25T00:10:36;93055.22;;;10.11;69.15
59289;BME280;45056;47.602;9.886;2023-05-25T00:13:04;93049.00;;;10.10;69.26
59289;BME280;45056;47.602;9.886;2023-05-25T00:15:32;93051.63;;;10.14;69.31
59289;BME280;45056;47.602;9.886;2023-05-25T00:18:01;93054.66;;;10.16;69.38
59289;BME280;45056;47.602;9.886;2023-05-25T00:20:29;93046.09;;;10.18;69.25
59289;BME280;45056;47.602;9.886;2023-05-25T00:22:58;93042.28;;;10.15;69.27
59289;BME280;45056;47.602;9.886;2023-05-25T00:25:28;93039.31;;;10.09;69.35
59289;BME280;45056;47.602;9.886;2023-05-25T00:27:56;93039.47;;;10.06;69.46
59289;BME280;45056;47.602;9.886;2023-05-25T00:30:24;93039.88;;;10.04;69.60
59289;BME280;45056;47.602;9.886;2023-05-25T00:32:52;93039.13;;;10.04;69.74
59289;BME280;45056;47.602;9.886;2023-05-25T00:35:22;93033.47;;;9.98;69.49
59289;BME280;45056;47.602;9.886;2023-05-25T00:37:50;93038.25;;;9.94;69.82
59289;BME280;45056;47.602;9.886;2023-05-25T00:40:18;93040.75;;;9.88;69.68
59289;BME280;45056;47.602;9.886;2023-05-25T00:42:47;93047.69;;;9.89;69.94
59289;BME280;45056;47.602;9.886;2023-05-25T00:45:15;93044.56;;;9.91;70.12
59289;BME280;45056;47.602;9.886;2023-05-25T00:47:44;93045.31;;;9.91;70.06
59289;BME280;45056;47.602;9.886;2023-05-25T00:50:36;93039.88;;;9.91;69.70
59289;BME280;45056;47.602;9.886;2023-05-25T00:53:07;93040.66;;;9.92;69.77
59289;BME280;45056;47.602;9.886;2023-05-25T00:55:40;93035.63;;;9.90;69.52
59289;BME280;45056;47.602;9.886;2023-05-25T00:58:12;93039.56;;;9.89;69.62
59289;BME280;45056;47.602;9.886;2023-05-25T01:00:45;93032.91;;;9.90;69.49
59289;BME280;45056;47.602;9.886;2023-05-25T01:03:19;93039.22;;;9.87;69.43
59289;BME280;45056;47.602;9.886;2023-05-25T01:05:56;93035.31;;;9.88;69.69
59289;BME280;45056;47.602;9.886;2023-05-25T01:08:27;93034.13;;;9.89;69.48
59289;BME280;45056;47.602;9.886;2023-05-25T01:10:58;93030.53;;;9.92;69.50
59289;BME280;45056;47.602;9.886;2023-05-25T01:13:31;93031.31;;;9.93;69.17
59289;BME280;45056;47.602;9.886;2023-05-25T01:16:04;93028.25;;;9.91;69.47
59289;BME280;45056;47.602;9.886;2023-05-25T01:18:33;93023.69;;;9.88;69.35
59289;BME280;45056;47.602;9.886;2023-05-25T01:21:11;93024.13;;;9.86;69.44
59289;BME280;45056;47.602;9.886;2023-05-25T01:23:52;93017.59;;;9.84;69.29
59289;BME280;45056;47.602;9.886;2023-05-25T01:26:31;93025.31;;;9.85;69.24
59289;BME280;45056;47.602;9.886;2023-05-25T01:29:05;93022.16;;;9.87;69.05
59289;BME280;45056;47.602;9.886;2023-05-25T01:31:34;93031.06;;;9.87;69.21
59289;BME280;45056;47.602;9.886;2023-05-25T01:34:03;93031.41;;;9.89;69.05
59289;BME280;45056;47.602;9.886;2023-05-25T01:36:33;93033.25;;;9.92;68.97
59289;BME280;45056;47.602;9.886;2023-05-25T01:39:01;93024.22;;;9.95;69.02
59289;BME280;45056;47.602;9.886;2023-05-25T01:41:32;93025.63;;;10.00;69.08
59289;BME280;45056;47.602;9.886;2023-05-25T01:44:00;93017.81;;;10.02;69.22
59289;BME280;45056;47.602;9.886;2023-05-25T01:46:33;93016.75;;;10.00;68.82
59289;BME280;45056;47.602;9.886;2023-05-25T01:49:15;93018.59;;;10.03;68.91
59289;BME280;45056;47.602;9.886;2023-05-25T01:51:58;93021.63;;;10.05;68.66
59289;BME280;45056;47.602;9.886;2023-05-25T01:54:37;93024.03;;;10.03;68.81
59289;BME280;45056;47.602;9.886;2023-05-25T01:57:11;93022.50;;;10.02;68.94
59289;BME280;45056;47.602;9.886;2023-05-25T01:59:44;93015.41;;;10.04;68.76
59289;BME280;45056;47.602;9.886;2023-05-25T02:02:16;93023.16;;;10.06;68.86
59289;BME280;45056;47.602;9.886;2023-05-25T02:04:46;93021.16;;;10.06;68.67
59289;BME280;45056;47.602;9.886;2023-05-25T02:07:16;93012.28;;;10.06;68.54
59289;BME280;45056;47.602;9.886;2023-05-25T02:09:44;93017.72;;;10.06;68.67
59289;BME280;45056;47.602;9.886;2023-05-25T02:12:12;93013.78;;;10.07;68.68
59289;BME280;45056;47.602;9.886;2023-05-25T02:14:41;93019.97;;;10.07;68.62
59289;BME280;45056;47.602;9.886;2023-05-25T02:17:11;93001.72;;;10.08;68.59
59289;BME280;45056;47.602;9.886;2023-05-25T02:19:39;93010.28;;;10.06;68.63
59289;BME280;45056;47.602;9.886;2023-05-25T02:22:07;93019.22;;;10.07;68.48
59289;BME280;45056;47.602;9.886;2023-05-25T02:24:36;93018.44;;;10.06;68.55
59289;BME280;45056;47.602;9.886;2023-05-25T02:27:05;93013.16;;;10.03;68.55
59289;BME280;45056;47.602;9.886;2023-05-25T02:29:33;93012.03;;;10.00;68.95
59289;BME280;45056;47.602;9.886;2023-05-25T02:32:01;93007.47;;;9.97;68.83
59289;BME280;45056;47.602;9.886;2023-05-25T02:34:29;93008.69;;;9.96;69.08
59289;BME280;45056;47.602;9.886;2023-05-25T02:36:57;93008.78;;;9.92;69.21
59289;BME280;45056;47.602;9.886;2023-05-25T02:39:27;93001.94;;;9.88;69.43
59289;BME280;45056;47.602;9.886;2023-05-25T02:41:56;93004.44;;;9.82;69.53
59289;BME280;45056;47.602;9.886;2023-05-25T02:44:24;93000.53;;;9.83;69.65
59289;BME280;45056;47.602;9.886;2023-05-25T02:46:52;93003.56;;;9.85;69.93
59289;BME280;45056;47.602;9.886;2023-05-25T02:49:20;93004.34;;;9.86;69.92
59289;BME280;45056;47.602;9.886;2023-05-25T02:51:48;93001.19;;;9.87;70.07
59289;BME280;45056;47.602;9.886;2023-05-25T02:54:16;92996.94;;;9.86;70.16
59289;BME280;45056;47.602;9.886;2023-05-25T02:56:44;92999.00;;;9.82;70.21
59289;BME280;45056;47.602;9.886;2023-05-25T02:59:14;92993.56;;;9.82;70.35
59289;BME280;45056;47.602;9.886;2023-05-25T03:01:42;92995.97;;;9.80;70.48
59289;BME280;45056;47.602;9.886;2023-05-25T03:04:10;92992.06;;;9.81;70.46
59289;BME280;45056;47.602;9.886;2023-05-25T03:06:38;92994.44;;;9.79;70.37
59289;BME280;45056;47.602;9.886;2023-05-25T03:09:06;92990.22;;;9.78;70.40
59289;BME280;45056;47.602;9.886;2023-05-25T03:11:35;92988.25;;;9.78;70.52
59289;BME280;45056;47.602;9.886;2023-05-25T03:14:03;92992.94;;;9.78;70.74
59289;BME280;45056;47.602;9.886;2023-05-25T03:16:33;92992.94;;;9.78;70.94
59289;BME280;45056;47.602;9.886;2023-05-25T03:19:01;92991.81;;;9.75;71.11
59289;BME280;45056;47.602;9.886;2023-05-25T03:21:30;92996.84;;;9.77;71.18
59289;BME280;45056;47.602;9.886;2023-05-25T03:23:58;93001.50;;;9.76;71.22
59289;BME280;45056;47.602;9.886;2023-05-25T03:26:26;92996.84;;;9.77;71.36
59289;BME280;45056;47.602;9.886;2023-05-25T03:28:56;93003.66;;;9.81;71.15
59289;BME280;45056;47.602;9.886;2023-05-25T03:31:24;93010.19;;;9.84;70.98
59289;BME280;45056;47.602;9.886;2023-05-25T03:33:53;93008.13;;;9.88;71.03
59289;BME280;45056;47.602;9.886;2023-05-25T03:36:21;92998.78;;;9.89;70.91
59289;BME280;45056;47.602;9.886;2023-05-25T03:38:53;93001.81;;;9.91;70.80
59289;BME280;45056;47.602;9.886;2023-05-25T03:41:21;93000.63;;;9.92;70.81
59289;BME280;45056;47.602;9.886;2023-05-25T03:43:49;93002.59;;;9.92;70.82
59289;BME280;45056;47.602;9.886;2023-05-25T03:46:17;92998.22;;;9.94;70.91
59289;BME280;45056;47.602;9.886;2023-05-25T03:48:45;93006.72;;;9.96;70.71
59289;BME280;45056;47.602;9.886;2023-05-25T03:51:14;93004.00;;;9.96;70.83
59289;BME280;45056;47.602;9.886;2023-05-25T03:53:42;93007.47;;;9.97;70.66
59289;BME280;45056;47.602;9.886;2023-05-25T03:56:10;93019.78;;;10.02;70.65
59289;BME280;45056;47.602;9.886;2023-05-25T03:58:38;93011.94;;;10.04;70.54
59289;BME280;45056;47.602;9.886;2023-05-25T04:01:06;93020.44;;;10.06;70.53
59289;BME280;45056;47.602;9.886;2023-05-25T04:03:36;93020.28;;;10.09;70.46
59289;BME280;45056;47.602;9.886;2023-05-25T04:06:04;93022.91;;;10.13;70.36
59289;BME280;45056;47.602;9.886;2023-05-25T04:08:33;93029.00;;;10.17;70.54
59289;BME280;45056;47.602;9.886;2023-05-25T04:11:01;93026.94;;;10.21;70.30
59289;BME280;45056;47.602;9.886;2023-05-25T04:13:29;93032.69;;;10.23;70.35
59289;BME280;45056;47.602;9.886;2023-05-25T04:16:01;93028.97;;;10.30;70.30
59289;BME280;45056;47.602;9.886;2023-05-25T04:18:29;93033.44;;;10.37;70.14
59289;BME280;45056;47.602;9.886;2023-05-25T04:20:57;93027.03;;;10.44;69.88
59289;BME280;45056;47.602;9.886;2023-05-25T04:23:25;93028.34;;;10.52;69.70
59289;BME280;45056;47.602;9.886;2023-05-25T04:25:55;93024.59;;;10.59;69.49
59289;BME280;45056;47.602;9.886;2023-05-25T04:28:23;93027.22;;;10.62;69.12
59289;BME280;45056;47.602;9.886;2023-05-25T04:30:51;93029.06;;;10.65;69.16
59289;BME280;45056;47.602;9.886;2023-05-25T04:33:25;93027.75;;;10.70;69.00
59289;BME280;45056;47.602;9.886;2023-05-25T04:35:54;93027.19;;;10.75;68.89
59289;BME280;45056;47.602;9.886;2023-05-25T04:38:24;93027.81;;;10.79;68.66
59289;BME280;45056;47.602;9.886;2023-05-25T04:40:52;93021.81;;;10.85;68.45
59289;BME280;45056;47.602;9.886;2023-05-25T04:43:23;93028.19;;;10.91;68.48
59289;BME280;45056;47.602;9.886;2023-05-25T04:45:53;93031.59;;;10.95;68.28
59289;BME280;45056;47.602;9.886;2023-05-25T04:48:21;93031.00;;;11.00;68.31
59289;BME280;45056;47.602;9.886;2023-05-25T04:50:50;93028.81;;;11.08;67.92
59289;BME280;45056;47.602;9.886;2023-05-25T04:53:21;93026.31;;;11.23;67.76
59289;BME280;45056;47.602;9.886;2023-05-25T04:55:49;93029.34;;;12.01;66.51
59289;BME280;45056;47.602;9.886;2023-05-25T04:58:17;93040.94;;;13.39;62.43
59289;BME280;45056;47.602;9.886;2023-05-25T05:00:47;93038.72;;;14.67;58.12
59289;BME280;45056;47.602;9.886;2023-05-25T05:03:15;93047.25;;;15.33;55.71
59289;BME280;45056;47.602;9.886;2023-05-25T05:05:44;93045.09;;;15.52;54.96
59289;BME280;45056;47.602;9.886;2023-05-25T05:08:12;93051.63;;;15.39;54.68
59289;BME280;45056;47.602;9.886;2023-05-25T05:10:40;93058.31;;;14.99;55.41
59289;BME280;45056;47.602;9.886;2023-05-25T05:13:08;93047.91;;;14.54;56.72
59289;BME280;45056;47.602;9.886;2023-05-25T05:15:37;93054.63;;;14.20;57.73
59289;BME280;45056;47.602;9.886;2023-05-25T05:18:06;93053.50;;;13.83;58.77
59289;BME280;45056;47.602;9.886;2023-05-25T05:20:34;93065.09;;;13.50;59.78
59289;BME280;45056;47.602;9.886;2023-05-25T05:23:02;93053.22;;;13.25;60.39
59289;BME280;45056;47.602;9.886;2023-05-25T05:25:30;93058.09;;;13.03;61.43
59289;BME280;45056;47.602;9.886;2023-05-25T05:27:58;93049.44;;;12.86;62.13
59289;BME280;45056;47.602;9.886;2023-05-25T05:30:26;93050.94;;;12.77;62.60
59289;BME280;45056;47.602;9.886;2023-05-25T05:32:54;93044.84;;;12.73;62.67
59289;BME280;45056;47.602;9.886;2023-05-25T05:35:24;93063.38;;;12.78;62.97
59289;BME280;45056;47.602;9.886;2023-05-25T05:37:52;93062.50;;;13.00;62.54
59289;BME280;45056;47.602;9.886;2023-05-25T05:40:20;93057.81;;;13.28;62.08
59289;BME280;45056;47.602;9.886;2023-05-25T05:42:48;93060.06;;;13.58;60.80
59289;BME280;45056;47.602;9.886;2023-05-25T05:45:16;93071.31;;;13.60;60.32
59289;BME280;45056;47.602;9.886;2023-05-25T05:47:44;93061.59;;;13.59;60.56
59289;BME280;45056;47.602;9.886;2023-05-25T05:50:12;93058.09;;;13.68;60.85
59289;BME280;45056;47.602;9.886;2023-05-25T05:52:42;93071.91;;;13.74;60.49
59289;BME280;45056;47.602;9.886;2023-05-25T05:55:10;93069.91;;;13.74;60.29
59289;BME280;45056;47.602;9.886;2023-05-25T05:57:38;93070.38;;;13.73;60.17
59289;BME280;45056;47.602;9.886;2023-05-25T06:00:07;93069.78;;;13.68;60.00
59289;BME280;45056;47.602;9.886;2023-05-25T06:02:37;93074.31;;;13.71;60.16
59289;BME280;45056;47.602;9.886;2023-05-25T06:05:05;93075.53;;;13.70;60.31
59289;BME280;45056;47.602;9.886;2023-05-25T06:07:34;93080.28;;;13.61;60.08
59289;BME280;45056;47.602;9.886;2023-05-25T06:10:05;93074.06;;;13.51;60.39
59289;BME280;45056;47.602;9.886;2023-05-25T06:12:34;93068.56;;;13.41;60.90
59289;BME280;45056;47.602;9.886;2023-05-25T06:15:03;93081.91;;;13.39;60.91
59289;BME280;45056;47.602;9.886;2023-05-25T06:17:32;93074.94;;;13.38;61.23
59289;BME280;45056;47.602;9.886;2023-05-25T06:20:01;93081.91;;;13.39;61.31
59289;BME280;45056;47.602;9.886;2023-05-25T06:22:29;93079.47;;;13.41;61.12
59289;BME280;45056;47.602;9.886;2023-05-25T06:24:58;93085.31;;;13.44;61.26
59289;BME280;45056;47.602;9.886;2023-05-25T06:27:28;93093.19;;;13.51;61.21
59289;BME280;45056;47.602;9.886;2023-05-25T06:29:56;93099.72;;;13.53;61.16
59289;BME280;45056;47.602;9.886;2023-05-25T06:32:24;93091.69;;;13.50;60.71
59289;BME280;45056;47.602;9.886;2023-05-25T06:34:52;93102.75;;;13.46;60.61
59289;BME280;45056;47.602;9.886;2023-05-25T06:37:20;93106.41;;;13.43;61.08
59289;BME280;45056;47.602;9.886;2023-05-25T06:39:48;93110.16;;;13.36;61.21
59289;BME280;45056;47.602;9.886;2023-05-25T06:42:17;93117.75;;;13.32;61.29
59289;BME280;45056;47.602;9.886;2023-05-25T06:44:46;93115.50;;;13.31;61.44
59289;BME280;45056;47.602;9.886;2023-05-25T06:47:14;93109.25;;;13.30;61.60
59289;BME280;45056;47.602;9.886;2023-05-25T06:49:42;93115.03;;;13.32;61.89
59289;BME280;45056;47.602;9.886;2023-05-25T06:52:10;93119.56;;;13.35;61.87
59289;BME280;45056;47.602;9.886;2023-05-25T06:54:38;93120.06;;;13.43;61.78
59289;BME280;45056;47.602;9.886;2023-05-25T06:57:06;93119.63;;;13.54;61.59
59289;BME280;45056;47.602;9.886;2023-05-25T06:59:34;93116.13;;;13.63;61.12
59289;BME280;45056;47.602;9.886;2023-05-25T07:02:04;93107.13;;;13.71;60.91
59289;BME280;45056;47.602;9.886;2023-05-25T07:04:33;93111.97;;;13.86;60.96
59289;BME280;45056;47.602;9.886;2023-05-25T07:07:01;93104.97;;;13.94;60.40
59289;BME280;45056;47.602;9.886;2023-05-25T07:09:29;93109.81;;;13.99;60.16
59289;BME280;45056;47.602;9.886;2023-05-25T07:11:57;93112.69;;;14.05;60.16
59289;BME280;45056;47.602;9.886;2023-05-25T07:14:25;93106.16;;;14.12;60.22
59289;BME280;45056;47.602;9.886;2023-05-25T07:16:53;93112.38;;;14.22;60.18
59289;BME280;45056;47.602;9.886;2023-05-25T07:19:22;93106.09;;;14.31;59.78
59289;BME280;45056;47.602;9.886;2023-05-25T07:21:50;93110.78;;;14.39;59.74
59289;BME280;45056;47.602;9.886;2023-05-25T07:24:19;93111.22;;;14.47;59.59
59289;BME280;45056;47.602;9.886;2023-05-25T07:26:47;93102.34;;;14.52;59.34
59289;BME280;45056;47.602;9.886;2023-05-25T07:29:15;93115.72;;;14.60;59.25
59289;BME280;45056;47.602;9.886;2023-05-25T07:31:43;93116.28;;;14.64;59.43
59289;BME280;45056;47.602;9.886;2023-05-25T07:34:11;93110.66;;;14.67;59.35
59289;BME280;45056;47.602;9.886;2023-05-25T07:36:40;93108.97;;;14.70;59.07
59289;BME280;45056;47.602;9.886;2023-05-25T07:39:08;93120.56;;;14.74;58.77
59289;BME280;45056;47.602;9.886;2023-05-25T07:41:37;93116.59;;;14.75;58.88
59289;BME280;45056;47.602;9.886;2023-05-25T07:44:05;93118.97;;;14.82;59.23
59289;BME280;45056;47.602;9.886;2023-05-25T07:46:33;93128.38;;;14.91;59.23
59289;BME280;45056;47.602;9.886;2023-05-25T07:49:01;93127.09;;;15.01;59.13
59289;BME280;45056;47.602;9.886;2023-05-25T07:51:30;93128.06;;;15.13;58.94
59289;BME280;45056;47.602;9.886;2023-05-25T07:53:59;93131.06;;;15.24;58.75
59289;BME280;45056;47.602;9.886;2023-05-25T07:56:27;93129.13;;;15.40;58.34
59289;BME280;45056;47.602;9.886;2023-05-25T07:58:55;93147.41;;;15.58;58.16
59289;BME280;45056;47.602;9.886;2023-05-25T08:01:25;93140.94;;;15.70;57.92
59289;BME280;45056;47.602;9.886;2023-05-25T08:03:53;93144.81;;;15.79;57.49
59289;BME280;45056;47.602;9.886;2023-05-25T08:06:21;93142.19;;;15.84;57.13
59289;BME280;45056;47.602;9.886;2023-05-25T08:08:49;93135.00;;;15.87;57.13
59289;BME280;45056;47.602;9.886;2023-05-25T08:11:22;93143.53;;;15.89;56.83
59289;BME280;45056;47.602;9.886;2023-05-25T08:13:52;93137.13;;;15.92;57.21
59289;BME280;45056;47.602;9.886;2023-05-25T08:16:20;93144.97;;;15.99;57.10
59289;BME280;45056;47.602;9.886;2023-05-25T08:18:48;93144.59;;;16.07;56.80
59289;BME280;45056;47.602;9.886;2023-05-25T08:21:17;93149.16;;;16.10;56.40
59289;BME280;45056;47.602;9.886;2023-05-25T08:23:45;93156.91;;;16.11;56.27
59289;BME280;45056;47.602;9.886;2023-05-25T08:26:14;93163.53;;;16.20;56.46
59289;BME280;45056;47.602;9.886;2023-05-25T08:28:43;93168.66;;;16.27;55.66
59289;BME280;45056;47.602;9.886;2023-05-25T08:31:11;93175.66;;;16.28;55.99
59289;BME280;45056;47.602;9.886;2023-05-25T08:33:39;93172.53;;;16.35;55.91
59289;BME280;45056;47.602;9.886;2023-05-25T08:36:07;93167.69;;;16.45;56.05
59289;BME280;45056;47.602;9.886;2023-05-25T08:38:36;93162.97;;;16.46;55.56
59289;BME280;45056;47.602;9.886;2023-05-25T08:41:05;93170.44;;;16.45;55.76
59289;BME280;45056;47.602;9.886;2023-05-25T08:43:34;93173.19;;;16.45;55.75
59289;BME280;45056;47.602;9.886;2023-05-25T08:46:05;93180.97;;;16.47;55.33
59289;BME280;45056;47.602;9.886;2023-05-25T08:48:36;93182.38;;;16.42;55.34
59289;BME280;45056;47.602;9.886;2023-05-25T08:51:07;93189.59;;;16.39;55.54
59289;BME280;45056;47.602;9.886;2023-05-25T08:53:37;93187.59;;;16.40;55.94
59289;BME280;45056;47.602;9.886;2023-05-25T08:56:10;93192.81;;;16.38;55.96
59289;BME280;45056;47.602;9.886;2023-05-25T08:58:46;93190.22;;;16.34;55.93
59289;BME280;45056;47.602;9.886;2023-05-25T09:01:25;93190.22;;;16.34;56.40
59289;BME280;45056;47.602;9.886;2023-05-25T09:03:59;93195.16;;;16.45;56.35
59289;BME280;45056;47.602;9.886;2023-05-25T09:06:28;93195.81;;;16.55;56.16
59289;BME280;45056;47.602;9.886;2023-05-25T09:08:59;93198.28;;;16.53;56.00
59289;BME280;45056;47.602;9.886;2023-05-25T09:11:31;93194.31;;;16.54;55.97
59289;BME280;45056;47.602;9.886;2023-05-25T09:13:59;93199.34;;;16.55;56.28
59289;BME280;45056;47.602;9.886;2023-05-25T09:16:30;93196.59;;;16.55;55.90
59289;BME280;45056;47.602;9.886;2023-05-25T09:18:59;93201.50;;;16.51;56.42
59289;BME280;45056;47.602;9.886;2023-05-25T09:21:27;93209.28;;;16.53;55.99
59289;BME280;45056;47.602;9.886;2023-05-25T09:23:55;93211.84;;;16.56;56.15
59289;BME280;45056;47.602;9.886;2023-05-25T09:26:23;93207.66;;;16.61;56.56
59289;BME280;45056;47.602;9.886;2023-05-25T09:28:52;93215.22;;;16.66;56.48
59289;BME280;45056;47.602;9.886;2023-05-25T09:31:22;93211.06;;;16.71;56.91
59289;BME280;45056;47.602;9.886;2023-05-25T09:33:52;93217.13;;;16.75;56.21
59289;BME280;45056;47.602;9.886;2023-05-25T09:36:25;93218.47;;;16.80;56.38
59289;BME280;45056;47.602;9.886;2023-05-25T09:38:54;93219.03;;;16.84;56.35
59289;BME280;45056;47.602;9.886;2023-05-25T09:41:22;93222.31;;;16.88;56.28
59289;BME280;45056;47.602;9.886;2023-05-25T09:43:53;93221.19;;;16.95;56.71
59289;BME280;45056;47.602;9.886;2023-05-25T09:46:23;93221.47;;;16.97;56.74
59289;BME280;45056;47.602;9.886;2023-05-25T09:48:52;93226.50;;;16.98;56.42
59289;BME280;45056;47.602;9.886;2023-05-25T09:51:20;93224.34;;;17.02;55.98
59289;BME280;45056;47.602;9.886;2023-05-25T09:53:48;93227.16;;;17.08;56.08
59289;BME280;45056;47.602;9.886;2023-05-25T09:56:17;93222.81;;;17.16;56.42
59289;BME280;45056;47.602;9.886;2023-05-25T09:58:45;93230.16;;;17.25;56.91
59289;BME280;45056;47.602;9.886;2023-05-25T10:01:14;93226.25;;;17.32;56.56
59289;BME280;45056;47.602;9.886;2023-05-25T10:03:44;93230.59;;;17.39;55.86
59289;BME280;45056;47.602;9.886;2023-05-25T10:06:15;93230.66;;;17.44;55.57
59289;BME280;45056;47.602;9.886;2023-05-25T10:08:43;93232.75;;;17.50;55.73
59289;BME280;45056;47.602;9.886;2023-05-25T10:11:13;93243.06;;;17.55;55.60
59289;BME280;45056;47.602;9.886;2023-05-25T10:13:44;93233.84;;;17.58;55.49
59289;BME280;45056;47.602;9.886;2023-05-25T10:16:15;93233.63;;;17.62;55.29
59289;BME280;45056;47.602;9.886;2023-05-25T10:18:47;93245.69;;;17.64;55.20
59289;BME280;45056;47.602;9.886;2023-05-25T10:21:25;93243.22;;;17.66;55.15
59289;BME280;45056;47.602;9.886;2023-05-25T10:24:03;93244.53;;;17.71;54.37
59289;BME280;45056;47.602;9.886;2023-05-25T10:26:41;93247.06;;;17.74;53.97
59289;BME280;45056;47.602;9.886;2023-05-25T10:29:17;93248.09;;;17.77;54.10
59289;BME280;45056;47.602;9.886;2023-05-25T10:31:47;93250.16;;;17.82;54.04
59289;BME280;45056;47.602;9.886;2023-05-25T10:34:16;93246.72;;;17.87;53.98
59289;BME280;45056;47.602;9.886;2023-05-25T10:36:48;93250.03;;;17.92;54.42
59289;BME280;45056;47.602;9.886;2023-05-25T10:39:18;93235.09;;;17.98;53.74
59289;BME280;45056;47.602;9.886;2023-05-25T10:41:47;93251.22;;;18.06;53.90
59289;BME280;45056;47.602;9.886;2023-05-25T10:44:17;93248.88;;;18.19;53.41
59289;BME280;45056;47.602;9.886;2023-05-25T10:46:47;93246.50;;;18.33;52.84
59289;BME280;45056;47.602;9.886;2023-05-25T10:49:25;93256.41;;;18.45;52.95
59289;BME280;45056;47.602;9.886;2023-05-25T10:52:00;93251.00;;;18.56;52.12
59289;BME280;45056;47.602;9.886;2023-05-25T10:54:29;93252.69;;;18.74;52.20
59289;BME280;45056;47.602;9.886;2023-05-25T10:57:08;93259.16;;;18.98;51.94
59289;BME280;45056;47.602;9.886;2023-05-25T10:59:40;93257.84;;;19.20;52.18
59289;BME280;45056;47.602;9.886;2023-05-25T11:02:10;93250.66;;;19.34;50.39
59289;BME280;45056;47.602;9.886;2023-05-25T11:04:38;93257.28;;;19.48;49.99
59289;BME280;45056;47.602;9.886;2023-05-25T11:07:13;93251.59;;;19.63;50.04
59289;BME280;45056;47.602;9.886;2023-05-25T11:09:54;93240.59;;;19.74;49.88
59289;BME280;45056;47.602;9.886;2023-05-25T11:12:25;93246.16;;;19.80;49.94
59289;BME280;45056;47.602;9.886;2023-05-25T11:15:08;93245.94;;;19.89;49.98
59289;BME280;45056;47.602;9.886;2023-05-25T11:17:58;93242.03;;;20.01;50.36
59289;BME280;45056;47.602;9.886;2023-05-25T11:20:29;93245.09;;;20.15;49.60
59289;BME280;45056;47.602;9.886;2023-05-25T11:23:21;93248.88;;;20.17;48.62
59289;BME280;45056;47.602;9.886;2023-05-25T11:25:50;93249.63;;;20.18;49.05
59289;BME280;45056;47.602;9.886;2023-05-25T11:28:21;93249.13;;;20.25;48.65
59289;BME280;45056;47.602;9.886;2023-05-25T11:30:49;93246.13;;;20.29;48.68
59289;BME280;45056;47.602;9.886;2023-05-25T11:33:19;93258.47;;;20.39;48.42
59289;BME280;45056;47.602;9.886;2023-05-25T11:35:49;93250.22;;;20.51;48.45
59289;BME280;45056;47.602;9.886;2023-05-25T11:38:23;93243.44;;;20.63;48.44
59289;BME280;45056;47.602;9.886;2023-05-25T11:40:52;93250.25;;;20.68;47.97
59289;BME280;45056;47.602;9.886;2023-05-25T11:43:23;93253.00;;;20.73;48.20
59289;BME280;45056;47.602;9.886;2023-05-25T11:45:54;93245.00;;;20.81;48.32
59289;BME280;45056;47.602;9.886;2023-05-25T11:48:23;93245.75;;;20.87;48.52
59289;BME280;45056;47.602;9.886;2023-05-25T11:51:03;93251.06;;;20.97;48.32
59289;BME280;45056;47.602;9.886;2023-05-25T11:53:33;93248.03;;;21.06;49.76
59289;BME280;45056;47.602;9.886;2023-05-25T11:56:01;93248.31;;;21.14;49.42
59289;BME280;45056;47.602;9.886;2023-05-25T11:58:32;93250.56;;;21.21;49.73
59289;BME280;45056;47.602;9.886;2023-05-25T12:01:14;93252.31;;;21.18;49.64
59289;BME280;45056;47.602;9.886;2023-05-25T12:03:44;93253.59;;;21.12;49.80
59289;BME280;45056;47.602;9.886;2023-05-25T12:06:23;93251.56;;;21.18;49.63
59289;BME280;45056;47.602;9.886;2023-05-25T12:08:55;93251.31;;;21.27;50.56
59289;BME280;45056;47.602;9.886;2023-05-25T12:11:28;93256.06;;;21.38;50.17
59289;BME280;45056;47.602;9.886;2023-05-25T12:13:58;93258.56;;;21.47;50.55
59289;BME280;45056;47.602;9.886;2023-05-25T12:16:29;93254.78;;;21.51;49.48
59289;BME280;45056;47.602;9.886;2023-05-25T12:19:00;93259.34;;;21.54;49.28
59289;BME280;45056;47.602;9.886;2023-05-25T12:21:29;93249.78;;;21.55;49.58
59289;BME280;45056;47.602;9.886;2023-05-25T12:24:00;93247.00;;;21.55;49.78
59289;BME280;45056;47.602;9.886;2023-05-25T12:26:28;93244.50;;;21.57;50.26
59289;BME280;45056;47.602;9.886;2023-05-25T12:28:57;93240.69;;;21.60;50.69
59289;BME280;45056;47.602;9.886;2023-05-25T12:31:29;93251.03;;;21.65;50.14
59289;BME280;45056;47.602;9.886;2023-05-25T12:34:05;93247.50;;;21.65;49.82
59289;BME280;45056;47.602;9.886;2023-05-25T12:36:39;93245.75;;;21.67;49.92
59289;BME280;45056;47.602;9.886;2023-05-25T12:39:14;93252.28;;;21.70;50.05
59289;BME280;45056;47.602;9.886;2023-05-25T12:41:47;93254.53;;;21.71;49.76
59289;BME280;45056;47.602;9.886;2023-05-25T12:44:18;93254.53;;;21.71;49.75
59289;BME280;45056;47.602;9.886;2023-05-25T12:46:48;93255.56;;;21.74;49.91
59289;BME280;45056;47.602;9.886;2023-05-25T12:49:24;93252.25;;;21.75;50.23
59289;BME280;45056;47.602;9.886;2023-05-25T12:51:54;93255.28;;;21.77;50.03
59289;BME280;45056;47.602;9.886;2023-05-25T12:54:40;93253.50;;;21.80;50.06
59289;BME280;45056;47.602;9.886;2023-05-25T12:57:11;93250.47;;;21.84;50.14
59289;BME280;45056;47.602;9.886;2023-05-25T12:59:43;93246.72;;;21.87;50.38
59289;BME280;45056;47.602;9.886;2023-05-25T13:02:13;93248.97;;;21.88;49.52
59289;BME280;45056;47.602;9.886;2023-05-25T13:04:41;93249.97;;;21.91;49.96
59289;BME280;45056;47.602;9.886;2023-05-25T13:07:10;93258.75;;;21.95;49.68
59289;BME280;45056;47.602;9.886;2023-05-25T13:09:39;93255.47;;;21.97;49.59
59289;BME280;45056;47.602;9.886;2023-05-25T13:12:08;93245.41;;;21.99;49.51
59289;BME280;45056;47.602;9.886;2023-05-25T13:14:36;93254.72;;;22.02;49.49
59289;BME280;45056;47.602;9.886;2023-05-25T13:17:04;93263.50;;;22.06;49.54